createdAt,value
2023-05-10T00:00:02.118Z,72.30
2023-05-10T00:03:01.675Z,72.61
2023-05-10T00:05:29.888Z,72.49
2023-05-10T00:07:58.342Z,72.46
2023-05-10T00:10:26.616Z,72.60
2023-05-10T00:12:54.999Z,72.78
2023-05-10T00:15:23.609Z,72.83
2023-05-10T00:17:52.311Z,72.99
2023-05-10T00:20:20.782Z,73.19
2023-05-10T00:22:49.180Z,73.64
2023-05-10T00:25:17.608Z,73.98
2023-05-10T00:27:45.809Z,74.25
2023-05-10T00:30:14.837Z,74.43
2023-05-10T00:32:44.655Z,74.73
2023-05-10T00:35:13.165Z,74.82
2023-05-10T00:37:41.732Z,74.84
2023-05-10T00:40:10.594Z,74.77
2023-05-10T00:42:38.847Z,74.81
2023-05-10T00:45:09.776Z,74.88
2023-05-10T00:47:38.693Z,74.99
2023-05-10T00:50:07.708Z,74.80
2023-05-10T00:52:36.184Z,74.85
2023-05-10T00:55:05.123Z,75.21
2023-05-10T00:57:33.724Z,75.37
2023-05-10T01:00:04.192Z,75.09
2023-05-10T01:02:32.543Z,75.02
2023-05-10T01:05:02.816Z,74.97
2023-05-10T01:07:31.415Z,75.08
2023-05-10T01:10:00.020Z,75.06
2023-05-10T01:12:28.539Z,75.30
2023-05-10T01:14:56.937Z,75.62
2023-05-10T01:17:25.792Z,75.63
2023-05-10T01:19:54.118Z,75.87
2023-05-10T01:23:20.080Z,76.23
2023-05-10T01:25:48.263Z,76.27
2023-05-10T01:28:32.233Z,76.20
2023-05-10T01:31:18.694Z,76.46
2023-05-10T01:34:08.939Z,76.57
2023-05-10T01:36:49.411Z,76.77
2023-05-10T01:39:46.288Z,76.85
2023-05-10T01:42:30.605Z,77.07
2023-05-10T01:45:20.683Z,77.16
2023-05-10T01:47:57.899Z,77.22
2023-05-10T01:50:31.289Z,77.68
2023-05-10T01:53:03.586Z,77.88
2023-05-10T01:55:37.069Z,78.07
2023-05-10T01:58:15.446Z,78.49
2023-05-10T02:00:45.721Z,78.68
2023-05-10T02:03:16.576Z,78.97
2023-05-10T02:05:47.891Z,79.25
2023-05-10T02:08:18.605Z,79.53
2023-05-10T02:10:49.049Z,79.70
2023-05-10T02:13:19.272Z,80.02
2023-05-10T02:15:52.465Z,80.24
2023-05-10T02:18:23.083Z,80.76
2023-05-10T02:20:53.668Z,81.30
2023-05-10T02:23:24.486Z,81.65
2023-05-10T02:25:55.924Z,81.86
2023-05-10T02:28:28.060Z,81.98
2023-05-10T02:30:58.791Z,82.50
2023-05-10T02:33:28.033Z,82.87
2023-05-10T02:35:57.811Z,82.97
2023-05-10T02:38:28.084Z,83.05
2023-05-10T02:40:58.355Z,83.35
2023-05-10T02:43:27.281Z,83.44
2023-05-10T02:45:55.800Z,83.69
2023-05-10T02:48:24.172Z,84.00
2023-05-10T02:50:55.297Z,83.96
2023-05-10T02:53:32.959Z,83.93
2023-05-10T02:56:12.235Z,84.33
2023-05-10T02:58:40.545Z,84.44
2023-05-10T03:01:09.166Z,84.54
2023-05-10T03:03:37.544Z,84.89
2023-05-10T03:06:06.130Z,85.05
2023-05-10T03:08:35.074Z,84.99
2023-05-10T03:11:38.307Z,85.14
2023-05-10T03:14:49.702Z,85.55
2023-05-10T03:17:17.905Z,86.03
2023-05-10T03:19:51.964Z,86.35
2023-05-10T03:22:39.131Z,86.60
2023-05-10T03:25:11.958Z,86.58
2023-05-10T03:27:43.940Z,86.59
2023-05-10T03:30:14.446Z,86.82
2023-05-10T03:32:43.281Z,86.97
2023-05-10T03:35:14.507Z,87.45
2023-05-10T03:37:43.191Z,87.60
2023-05-10T03:40:12.152Z,87.50
2023-05-10T03:42:42.125Z,87.34
2023-05-10T03:45:10.813Z,87.44
2023-05-10T03:47:39.197Z,87.32
2023-05-10T03:50:08.281Z,87.19
2023-05-10T03:52:36.820Z,87.03
2023-05-10T03:55:05.956Z,87.31
2023-05-10T03:57:35.114Z,87.25
2023-05-10T04:00:04.842Z,87.22
2023-05-10T04:02:43.194Z,87.20
2023-05-10T04:05:17.997Z,87.13
2023-05-10T04:07:46.362Z,86.96
2023-05-10T04:10:14.797Z,86.84
2023-05-10T04:12:43.471Z,86.90
2023-05-10T04:15:11.696Z,86.67
2023-05-10T04:17:39.969Z,86.60
2023-05-10T04:20:09.330Z,86.58
2023-05-10T04:22:37.578Z,86.37
2023-05-10T04:25:07.414Z,86.11
2023-05-10T04:27:35.978Z,85.89
2023-05-10T04:30:04.877Z,85.51
2023-05-10T04:32:33.571Z,85.39
2023-05-10T04:35:04.742Z,85.01
2023-05-10T04:37:32.997Z,84.62
2023-05-10T04:40:01.297Z,84.19
2023-05-10T04:42:29.905Z,83.43
2023-05-10T04:44:58.487Z,82.82
2023-05-10T04:47:26.806Z,82.45
2023-05-10T04:49:55.169Z,82.06
2023-05-10T04:52:23.526Z,81.30
2023-05-10T04:54:52.541Z,80.47
2023-05-10T04:57:20.831Z,80.18
2023-05-10T04:59:50.333Z,80.01
2023-05-10T05:02:18.913Z,79.27
2023-05-10T05:04:47.345Z,78.45
2023-05-10T05:07:15.861Z,77.70
2023-05-10T05:09:44.147Z,76.75
2023-05-10T05:12:15.421Z,76.34
2023-05-10T05:14:44.438Z,75.62
2023-05-10T05:17:12.902Z,74.92
2023-05-10T05:19:41.293Z,74.38
2023-05-10T05:22:09.776Z,74.03
2023-05-10T05:24:39.380Z,72.90
2023-05-10T05:27:07.958Z,72.11
2023-05-10T05:29:36.814Z,71.79
2023-05-10T05:32:05.448Z,71.21
2023-05-10T05:34:34.223Z,70.60
2023-05-10T05:37:02.433Z,70.39
2023-05-10T05:39:30.854Z,69.48
2023-05-10T05:41:59.653Z,68.21
2023-05-10T05:44:30.046Z,67.97
2023-05-10T05:46:58.303Z,68.60
2023-05-10T05:49:26.585Z,68.92
2023-05-10T05:51:54.906Z,68.72
2023-05-10T05:54:23.214Z,68.31
2023-05-10T05:56:51.490Z,67.55
2023-05-10T05:59:19.836Z,66.45
2023-05-10T06:01:48.215Z,66.06
2023-05-10T06:04:17.371Z,65.24
2023-05-10T06:06:45.908Z,65.10
2023-05-10T06:09:14.197Z,64.33
2023-05-10T06:11:42.567Z,64.09
2023-05-10T06:14:10.983Z,63.79
2023-05-10T06:16:39.292Z,63.94
2023-05-10T06:19:07.738Z,64.15
2023-05-10T06:21:35.971Z,64.07
2023-05-10T06:24:04.428Z,64.11
2023-05-10T06:26:32.706Z,64.13
2023-05-10T06:29:00.982Z,63.68
2023-05-10T06:31:29.245Z,61.89
2023-05-10T06:33:57.573Z,61.52
2023-05-10T06:36:27.587Z,61.76
2023-05-10T06:38:55.958Z,61.33
2023-05-10T06:41:24.943Z,60.03
2023-05-10T06:43:53.328Z,60.59
2023-05-10T06:46:21.638Z,60.00
2023-05-10T06:48:49.949Z,59.80
2023-05-10T06:51:19.303Z,59.36
2023-05-10T06:53:47.767Z,58.09
2023-05-10T06:56:16.049Z,57.21
2023-05-10T06:58:44.374Z,57.57
2023-05-10T07:01:12.915Z,56.14
2023-05-10T07:03:41.561Z,54.50
2023-05-10T07:06:15.715Z,54.47
2023-05-10T07:08:50.596Z,55.27
2023-05-10T07:11:18.979Z,55.73
2023-05-10T07:13:47.659Z,55.04
2023-05-10T07:16:16.439Z,53.32
2023-05-10T07:18:44.675Z,52.78
2023-05-10T07:21:13.035Z,53.86
2023-05-10T07:23:42.926Z,52.69
2023-05-10T07:26:12.736Z,52.29
2023-05-10T07:28:41.625Z,50.88
2023-05-10T07:31:09.967Z,50.47
2023-05-10T07:33:38.302Z,52.35
2023-05-10T07:36:06.785Z,51.43
2023-05-10T07:38:35.085Z,50.24
2023-05-10T07:41:03.291Z,49.79
2023-05-10T07:43:31.793Z,51.35
2023-05-10T07:46:00.821Z,49.60
2023-05-10T07:48:29.088Z,48.43
2023-05-10T07:50:57.477Z,47.14
2023-05-10T07:53:27.447Z,47.72
2023-05-10T07:55:59.442Z,47.55
2023-05-10T07:58:27.911Z,46.78
2023-05-10T08:00:56.290Z,47.02
2023-05-10T08:03:24.635Z,48.88
2023-05-10T08:05:53.091Z,48.44
2023-05-10T08:08:22.677Z,47.39
2023-05-10T08:10:50.931Z,47.67
2023-05-10T08:13:19.326Z,47.19
2023-05-10T08:15:48.182Z,47.13
2023-05-10T08:18:16.449Z,46.93
2023-05-10T08:20:44.867Z,45.65
2023-05-10T08:23:16.735Z,45.18
2023-05-10T08:25:45.052Z,44.64
2023-05-10T08:28:13.396Z,41.98
2023-05-10T08:30:41.685Z,42.80
2023-05-10T08:33:10.109Z,42.14
2023-05-10T08:35:38.404Z,40.29
2023-05-10T08:38:06.742Z,40.69
2023-05-10T08:40:37.877Z,41.99
2023-05-10T08:43:09.970Z,41.33
2023-05-10T08:45:40.732Z,41.14
2023-05-10T08:48:10.933Z,41.69
2023-05-10T08:50:41.977Z,41.75
2023-05-10T08:53:14.062Z,41.87
2023-05-10T08:55:43.934Z,38.37
2023-05-10T08:58:12.284Z,39.52
2023-05-10T09:00:41.111Z,38.89
2023-05-10T09:03:10.473Z,38.82
2023-05-10T09:05:39.190Z,38.10
2023-05-10T09:08:09.745Z,38.07
2023-05-10T09:10:39.980Z,38.56
2023-05-10T09:13:11.024Z,37.49
2023-05-10T09:15:39.982Z,37.42
2023-05-10T09:18:08.398Z,37.48
2023-05-10T09:20:36.695Z,38.52
2023-05-10T09:23:05.049Z,38.86
2023-05-10T09:25:34.864Z,38.57
2023-05-10T09:28:08.451Z,37.13
2023-05-10T09:30:37.093Z,36.98
2023-05-10T09:33:05.505Z,35.77
2023-05-10T09:35:35.149Z,35.67
2023-05-10T09:38:05.518Z,35.22
2023-05-10T09:40:34.020Z,36.12
2023-05-10T09:43:12.084Z,35.81
2023-05-10T09:45:42.291Z,36.26
2023-05-10T09:48:10.590Z,37.11
2023-05-10T09:50:39.997Z,37.26
2023-05-10T09:53:08.562Z,36.82
2023-05-10T09:55:47.127Z,36.82
2023-05-10T09:58:15.776Z,6.69
2023-05-10T10:00:46.252Z,-1.00
2023-05-10T10:03:16.775Z,-1.00
2023-05-10T10:05:47.228Z,-1.00
2023-05-10T10:08:16.821Z,-1.00
2023-05-10T10:10:48.070Z,-1.00
2023-05-10T10:13:18.468Z,-1.00
2023-05-10T10:15:48.927Z,-1.00
2023-05-10T10:18:17.492Z,-1.00
2023-05-10T10:20:46.679Z,-1.00
2023-05-10T10:23:17.353Z,-1.00
2023-05-10T10:25:50.038Z,-1.00
2023-05-10T10:28:37.407Z,-1.00
2023-05-10T10:31:26.600Z,-1.00
2023-05-10T10:34:05.008Z,-1.00
2023-05-10T10:36:41.110Z,-1.00
2023-05-10T10:39:12.093Z,-1.00
2023-05-10T10:41:50.632Z,-1.00
2023-05-10T10:44:31.902Z,-1.00
2023-05-10T10:47:03.690Z,-1.00
2023-05-10T10:50:01.721Z,-1.00
2023-05-10T10:52:35.383Z,-1.00
2023-05-10T10:55:15.915Z,-1.00
2023-05-10T10:57:49.670Z,-1.00
2023-05-10T11:00:34.272Z,-1.00
2023-05-10T11:03:17.245Z,-1.00
2023-05-10T11:05:50.514Z,-1.00
2023-05-10T11:08:32.236Z,-1.00
2023-05-10T11:11:00.669Z,-1.00
2023-05-10T11:13:33.055Z,-1.00
2023-05-10T11:16:19.718Z,-1.00
2023-05-10T11:19:10.536Z,-1.00
2023-05-10T11:22:13.398Z,-1.00
2023-05-10T11:24:57.613Z,-1.00
2023-05-10T11:27:27.395Z,-1.00
2023-05-10T11:30:06.168Z,-1.00
2023-05-10T11:32:39.058Z,-1.00
2023-05-10T11:35:10.967Z,-1.00
2023-05-10T11:37:44.792Z,-1.00
2023-05-10T11:40:14.628Z,-1.00
2023-05-10T11:42:43.433Z,-1.00
2023-05-10T11:45:13.526Z,-1.00
2023-05-10T11:47:44.484Z,-1.00
2023-05-10T11:50:12.973Z,-1.00
2023-05-10T11:52:41.335Z,-1.00
2023-05-10T11:55:09.824Z,-1.00
2023-05-10T11:57:39.821Z,-1.00
2023-05-10T12:00:08.923Z,-1.00
2023-05-10T12:02:37.529Z,-1.00
2023-05-10T12:05:07.098Z,-1.00
2023-05-10T12:07:36.153Z,-1.00
2023-05-10T12:10:04.660Z,-1.00
2023-05-10T12:12:44.751Z,-1.00
2023-05-10T12:15:24.568Z,-1.00
2023-05-10T12:17:54.648Z,-1.00
2023-05-10T12:20:25.171Z,-1.00
2023-05-10T12:23:00.580Z,-1.00
2023-05-10T12:25:40.384Z,-1.00
2023-05-10T12:28:11.154Z,-1.00
2023-05-10T12:30:40.453Z,-1.00
2023-05-10T12:33:12.281Z,-1.00
2023-05-10T12:35:49.462Z,-1.00
2023-05-10T12:38:27.026Z,-1.00
2023-05-10T12:40:55.671Z,-1.00
2023-05-10T12:43:24.310Z,-1.00
2023-05-10T12:45:55.670Z,-1.00
2023-05-10T12:48:32.748Z,-1.00
2023-05-10T12:51:02.947Z,-1.00
2023-05-10T12:53:32.199Z,-1.00
2023-05-10T12:56:00.749Z,-1.00
2023-05-10T12:58:35.462Z,-1.00
2023-05-10T13:01:06.723Z,-1.00
2023-05-10T13:03:35.183Z,-1.00
2023-05-10T13:06:03.819Z,-1.00
2023-05-10T13:08:34.784Z,-1.00
2023-05-10T13:11:07.593Z,-1.00
2023-05-10T13:13:38.901Z,-1.00
2023-05-10T13:16:07.922Z,-1.00
2023-05-10T13:18:37.150Z,-1.00
2023-05-10T13:21:06.740Z,-1.00
2023-05-10T13:23:35.803Z,-1.00
2023-05-10T13:26:04.456Z,-1.00
2023-05-10T13:31:11.727Z,30.46
2023-05-10T13:33:40.253Z,30.27
2023-05-10T13:36:08.912Z,30.07
2023-05-10T13:38:38.764Z,30.21
2023-05-10T13:41:13.538Z,28.98
2023-05-10T13:43:42.049Z,29.05
2023-05-10T13:46:10.707Z,29.77
2023-05-10T13:48:39.309Z,30.79
2023-05-10T13:51:07.724Z,30.26
2023-05-10T13:53:36.180Z,29.98
2023-05-10T13:56:05.019Z,29.87
2023-05-10T13:58:34.987Z,30.07
2023-05-10T14:01:03.524Z,31.64
2023-05-10T14:03:33.746Z,31.06
2023-05-10T14:06:02.790Z,31.44
2023-05-10T14:08:31.462Z,31.39
2023-05-10T14:11:01.089Z,30.19
2023-05-10T14:13:29.790Z,30.13
2023-05-10T14:15:59.879Z,30.91
2023-05-10T14:18:29.605Z,31.47
2023-05-10T14:20:59.174Z,31.37
2023-05-10T14:23:29.999Z,32.13
2023-05-10T14:25:58.727Z,31.40
2023-05-10T14:28:27.526Z,32.38
2023-05-10T14:30:56.007Z,32.85
2023-05-10T14:33:24.667Z,33.10
2023-05-10T14:35:58.500Z,32.55
2023-05-10T14:38:27.758Z,31.65
2023-05-10T14:40:57.242Z,32.53
2023-05-10T14:43:26.177Z,33.11
2023-05-10T14:45:57.622Z,32.77
2023-05-10T14:48:26.424Z,33.12
2023-05-10T14:50:54.808Z,32.84
2023-05-10T14:53:23.247Z,32.80
2023-05-10T14:55:51.940Z,33.11
2023-05-10T14:58:20.845Z,32.87
2023-05-10T15:00:50.075Z,32.26
2023-05-10T15:03:22.426Z,32.75
2023-05-10T15:05:53.352Z,33.22
2023-05-10T15:08:21.875Z,33.33
2023-05-10T15:10:50.213Z,33.85
2023-05-10T15:13:18.841Z,34.28
2023-05-10T15:15:47.327Z,34.32
2023-05-10T15:18:15.964Z,34.06
2023-05-10T15:20:45.786Z,34.03
2023-05-10T15:23:14.313Z,33.89
2023-05-10T15:25:42.872Z,34.86
2023-05-10T15:28:11.454Z,35.23
2023-05-10T15:30:39.814Z,35.42
2023-05-10T15:33:08.992Z,35.55
2023-05-10T15:35:39.357Z,35.34
2023-05-10T15:38:08.384Z,35.77
2023-05-10T15:40:36.850Z,35.94
2023-05-10T15:43:06.564Z,36.35
2023-05-10T15:45:37.483Z,35.97
2023-05-10T15:48:10.289Z,35.63
2023-05-10T15:50:38.761Z,35.65
2023-05-10T15:53:07.152Z,36.20
2023-05-10T15:55:35.902Z,36.02
2023-05-10T15:58:06.653Z,35.55
2023-05-10T16:00:35.124Z,35.76
2023-05-10T16:03:04.198Z,35.67
2023-05-10T16:05:33.848Z,36.27
2023-05-10T16:08:02.547Z,35.96
2023-05-10T16:10:34.297Z,35.93
2023-05-10T16:13:05.230Z,35.58
2023-05-10T16:15:34.218Z,35.56
2023-05-10T16:18:02.998Z,36.55
2023-05-10T16:20:33.257Z,37.01
2023-05-10T16:23:05.871Z,36.98
2023-05-10T16:25:34.295Z,37.12
2023-05-10T16:28:02.850Z,36.58
2023-05-10T16:30:31.317Z,36.74
2023-05-10T16:33:01.639Z,36.91
2023-05-10T16:35:30.352Z,37.37
2023-05-10T16:37:58.710Z,37.97
2023-05-10T16:40:27.104Z,37.86
2023-05-10T16:42:55.594Z,37.52
2023-05-10T16:45:24.253Z,38.13
2023-05-10T16:47:54.159Z,38.25
2023-05-10T16:50:22.729Z,38.17
2023-05-10T16:52:51.008Z,37.93
2023-05-10T16:55:19.747Z,37.48
2023-05-10T16:57:49.722Z,37.71
2023-05-10T17:00:18.205Z,38.03
2023-05-10T17:02:47.058Z,38.70
2023-05-10T17:05:16.152Z,38.60
2023-05-10T17:07:44.807Z,38.13
2023-05-10T17:10:13.333Z,37.77
2023-05-10T17:12:41.771Z,37.35
2023-05-10T17:15:10.602Z,37.93
2023-05-10T17:17:39.131Z,38.51
2023-05-10T17:20:08.474Z,38.17
2023-05-10T17:22:36.855Z,38.63
2023-05-10T17:25:08.211Z,38.73
2023-05-10T17:27:36.573Z,39.21
2023-05-10T17:30:06.040Z,39.18
2023-05-10T17:32:34.582Z,39.42
2023-05-10T17:35:05.366Z,39.68
2023-05-10T17:37:33.879Z,39.97
2023-05-10T17:40:03.828Z,40.19
2023-05-10T17:42:32.926Z,40.57
2023-05-10T17:45:01.376Z,40.81
2023-05-10T17:47:29.906Z,41.03
2023-05-10T17:49:58.322Z,41.57
2023-05-10T17:52:26.969Z,41.87
2023-05-10T17:54:55.649Z,42.09
2023-05-10T17:57:27.505Z,42.33
2023-05-10T17:59:56.013Z,42.70
2023-05-10T18:02:24.354Z,42.75
2023-05-10T18:04:52.887Z,43.07
2023-05-10T18:07:23.837Z,43.44
2023-05-10T18:09:52.194Z,43.59
2023-05-10T18:12:20.555Z,43.67
2023-05-10T18:14:48.973Z,43.91
2023-05-10T18:17:18.165Z,44.47
2023-05-10T18:19:46.509Z,44.58
2023-05-10T18:22:14.936Z,45.09
2023-05-10T18:24:43.308Z,45.06
2023-05-10T18:27:12.091Z,44.95
2023-05-10T18:29:40.386Z,45.07
2023-05-10T18:32:08.642Z,45.07
2023-05-10T18:34:37.494Z,45.10
2023-05-10T18:37:08.016Z,44.90
2023-05-10T18:39:37.718Z,45.15
2023-05-10T18:42:06.272Z,45.23
2023-05-10T18:44:34.759Z,45.03
2023-05-10T18:47:03.255Z,45.11
2023-05-10T18:49:32.196Z,45.08
2023-05-10T18:52:01.112Z,45.18
2023-05-10T18:54:30.347Z,45.47
2023-05-10T18:56:59.002Z,45.51
2023-05-10T18:59:28.292Z,45.31
2023-05-10T19:01:57.710Z,45.47
2023-05-10T19:04:26.344Z,45.27
2023-05-10T19:06:56.088Z,45.50
2023-05-10T19:09:26.832Z,45.55
2023-05-10T19:11:55.454Z,45.56
2023-05-10T19:14:25.593Z,45.69
2023-05-10T19:16:54.678Z,45.68
2023-05-10T19:19:23.274Z,45.78
2023-05-10T19:21:52.378Z,46.04
2023-05-10T19:24:24.974Z,46.15
2023-05-10T19:26:54.391Z,46.30
2023-05-10T19:29:23.523Z,46.27
2023-05-10T19:31:53.083Z,46.66
2023-05-10T19:34:21.946Z,46.74
2023-05-10T19:36:50.689Z,47.19
2023-05-10T19:39:19.825Z,47.35
2023-05-10T19:41:50.477Z,47.21
2023-05-10T19:44:19.011Z,47.49
2023-05-10T19:46:47.460Z,47.64
2023-05-10T19:49:17.390Z,47.52
2023-05-10T19:51:45.932Z,47.83
2023-05-10T19:54:14.224Z,48.00
2023-05-10T19:56:42.581Z,48.02
2023-05-10T19:59:10.888Z,48.07
2023-05-10T20:01:39.316Z,48.26
2023-05-10T20:04:07.838Z,48.33
2023-05-10T20:06:36.856Z,48.38
2023-05-10T20:09:05.113Z,48.34
2023-05-10T20:11:34.250Z,48.45
2023-05-10T20:14:04.721Z,48.49
2023-05-10T20:16:32.983Z,48.71
2023-05-10T20:19:01.640Z,48.74
2023-05-10T20:21:30.063Z,49.02
2023-05-10T20:23:58.299Z,48.96
2023-05-10T20:26:26.741Z,49.17
2023-05-10T20:28:55.108Z,49.23
2023-05-10T20:31:23.403Z,49.37
2023-05-10T20:33:51.670Z,49.46
2023-05-10T20:36:20.090Z,49.59
2023-05-10T20:38:48.217Z,49.87
2023-05-10T20:41:16.541Z,49.95
2023-05-10T20:43:44.856Z,50.10
2023-05-10T20:46:13.280Z,50.44
2023-05-10T20:48:41.636Z,50.95
2023-05-10T20:51:10.102Z,50.95
2023-05-10T20:53:40.501Z,51.10
2023-05-10T20:56:08.811Z,51.39
2023-05-10T20:58:37.034Z,51.44
2023-05-10T21:01:05.339Z,51.46
2023-05-10T21:03:33.726Z,51.41
2023-05-10T21:06:02.077Z,51.44
2023-05-10T21:08:30.274Z,51.71
2023-05-10T21:10:59.496Z,51.86
2023-05-10T21:13:27.731Z,51.87
2023-05-10T21:15:56.293Z,51.82
2023-05-10T21:18:26.093Z,51.81
2023-05-10T21:20:54.521Z,51.68
2023-05-10T21:23:22.789Z,51.90
2023-05-10T21:25:51.140Z,52.00
2023-05-10T21:28:19.422Z,51.74
2023-05-10T21:30:48.000Z,51.79
2023-05-10T21:33:16.419Z,52.11
2023-05-10T21:35:44.794Z,52.30
2023-05-10T21:38:13.056Z,52.27
2023-05-10T21:40:41.598Z,52.77
2023-05-10T21:43:11.331Z,53.86
2023-05-10T21:45:39.933Z,53.89
2023-05-10T21:48:09.062Z,55.53
2023-05-10T21:50:37.316Z,56.89
2023-05-10T21:53:05.795Z,57.83
2023-05-10T21:55:34.368Z,57.99
2023-05-10T21:58:02.646Z,57.64
2023-05-10T22:00:32.742Z,57.84
2023-05-10T22:03:02.645Z,58.47
2023-05-10T22:05:31.023Z,58.82
2023-05-10T22:07:59.297Z,59.30
2023-05-10T22:10:27.747Z,59.95
2023-05-10T22:12:55.920Z,60.23
2023-05-10T22:15:24.125Z,60.52
2023-05-10T22:17:52.924Z,61.01
2023-05-10T22:20:21.235Z,61.90
2023-05-10T22:22:49.386Z,62.52
2023-05-10T22:25:17.936Z,63.45
2023-05-10T22:27:46.215Z,64.11
2023-05-10T22:30:14.626Z,64.32
2023-05-10T22:32:43.021Z,64.76
2023-05-10T22:35:11.588Z,65.35
2023-05-10T22:37:39.898Z,65.68
2023-05-10T22:40:08.901Z,66.12
2023-05-10T22:42:37.262Z,66.51
2023-05-10T22:45:06.096Z,66.65
2023-05-10T22:47:34.677Z,67.07
2023-05-10T22:50:05.867Z,67.47
2023-05-10T22:52:34.265Z,67.97
2023-05-10T22:55:02.585Z,68.34
2023-05-10T22:57:31.302Z,69.16
2023-05-10T22:59:59.914Z,69.55
2023-05-10T23:02:28.205Z,69.75
2023-05-10T23:04:56.722Z,69.89
2023-05-10T23:07:25.148Z,70.33
2023-05-10T23:09:53.321Z,70.94
2023-05-10T23:12:21.457Z,71.46
2023-05-10T23:14:50.754Z,72.08
2023-05-10T23:17:18.994Z,72.90
2023-05-10T23:19:47.188Z,74.06
2023-05-10T23:22:15.540Z,75.09
2023-05-10T23:24:43.755Z,75.83
2023-05-10T23:27:12.064Z,76.54
2023-05-10T23:29:40.290Z,77.22
2023-05-10T23:32:08.610Z,78.01
2023-05-10T23:34:36.951Z,79.18
2023-05-10T23:37:06.336Z,47.61
2023-05-10T23:39:34.928Z,-1.00
2023-05-10T23:42:03.336Z,-1.00
2023-05-10T23:44:31.778Z,-1.00
2023-05-10T23:47:00.045Z,-1.00
2023-05-10T23:49:28.387Z,-1.00
2023-05-10T23:51:56.598Z,-1.00
2023-05-10T23:54:24.800Z,-1.00
2023-05-10T23:56:53.499Z,-1.00
2023-05-10T23:59:21.811Z,-1.00
